sensor_id;sensor_type;location;lat;lon;timestamp;pressure;altitude;pressure_sealevel;temperature;humidity
75998;BME280;64685;48.762;44.822;2023-07-08T00:02:41;100638.09;;;26.91;39.26
75998;BME280;64685;48.762;44.822;2023-07-08T00:07:45;100635.22;;;26.91;39.49
75998;BME280;64685;48.762;44.822;2023-07-08T00:12:49;100629.56;;;26.87;39.41
75998;BME280;64685;48.762;44.822;2023-07-08T00:17:52;100623.97;;;26.80;39.62
75998;BME280;64685;48.762;44.822;2023-07-08T00:22:54;100610.94;;;26.76;39.77
75998;BME280;64685;48.762;44.822;2023-07-08T00:27:58;100611.03;;;26.69;39.68
75998;BME280;64685;48.762;44.822;2023-07-08T00:33:01;100594.53;;;26.50;40.03
75998;BME280;64685;48.762;44.822;2023-07-08T00:38:24;100596.22;;;26.47;39.73
75998;BME280;64685;48.762;44.822;2023-07-08T00:43:53;100597.59;;;26.39;39.66
75998;BME280;64685;48.762;44.822;2023-07-08T00:54:36;100584.22;;;26.29;40.04
75998;BME280;64685;48.762;44.822;2023-07-08T00:59:42;100585.53;;;26.25;39.96
75998;BME280;64685;48.762;44.822;2023-07-08T01:05:12;100588.00;;;26.23;40.33
75998;BME280;64685;48.762;44.822;2023-07-08T01:10:28;100581.50;;;26.22;40.52
75998;BME280;64685;48.762;44.822;2023-07-08T01:15:42;100578.94;;;26.28;40.15
75998;BME280;64685;48.762;44.822;2023-07-08T01:20:47;100582.06;;;26.37;40.38
75998;BME280;64685;48.762;44.822;2023-07-08T01:25:50;100569.78;;;26.36;40.24
75998;BME280;64685;48.762;44.822;2023-07-08T01:30:53;100577.84;;;26.45;39.81
75998;BME280;64685;48.762;44.822;2023-07-08T01:35:56;100573.63;;;26.53;39.71
75998;BME280;64685;48.762;44.822;2023-07-08T01:40:59;100624.22;;;26.63;39.53
75998;BME280;64685;48.762;44.822;2023-07-08T01:46:03;100603.75;;;26.87;37.84
75998;BME280;64685;48.762;44.822;2023-07-08T01:51:07;100628.44;;;27.04;36.93
75998;BME280;64685;48.762;44.822;2023-07-08T01:56:12;100629.63;;;27.92;35.04
75998;BME280;64685;48.762;44.822;2023-07-08T02:01:14;100616.81;;;28.32;34.28
75998;BME280;64685;48.762;44.822;2023-07-08T02:06:19;100609.19;;;28.45;33.73
75998;BME280;64685;48.762;44.822;2023-07-08T02:11:21;100597.69;;;28.77;33.94
75998;BME280;64685;48.762;44.822;2023-07-08T02:16:24;100592.75;;;28.93;33.63
75998;BME280;64685;48.762;44.822;2023-07-08T02:21:27;100598.16;;;29.07;33.85
75998;BME280;64685;48.762;44.822;2023-07-08T02:26:33;100593.56;;;29.10;33.60
75998;BME280;64685;48.762;44.822;2023-07-08T02:31:36;100584.81;;;29.29;33.92
75998;BME280;64685;48.762;44.822;2023-07-08T02:36:39;100596.31;;;29.86;32.42
75998;BME280;64685;48.762;44.822;2023-07-08T02:41:41;100597.94;;;30.41;32.28
75998;BME280;64685;48.762;44.822;2023-07-08T02:46:44;100596.81;;;30.76;32.01
75998;BME280;64685;48.762;44.822;2023-07-08T02:51:47;100596.56;;;30.70;31.66
75998;BME280;64685;48.762;44.822;2023-07-08T02:56:49;100599.91;;;30.81;32.01
75998;BME280;64685;48.762;44.822;2023-07-08T03:01:52;100593.78;;;31.38;31.23
75998;BME280;64685;48.762;44.822;2023-07-08T03:06:54;100599.47;;;31.63;30.14
75998;BME280;64685;48.762;44.822;2023-07-08T03:11:58;100598.13;;;31.98;29.36
75998;BME280;64685;48.762;44.822;2023-07-08T03:17:00;100604.19;;;31.91;29.67
75998;BME280;64685;48.762;44.822;2023-07-08T03:22:03;100606.28;;;31.57;30.20
75998;BME280;64685;48.762;44.822;2023-07-08T03:27:07;100605.75;;;31.49;30.23
75998;BME280;64685;48.762;44.822;2023-07-08T03:32:12;100605.25;;;31.85;30.32
75998;BME280;64685;48.762;44.822;2023-07-08T03:37:16;100592.81;;;32.49;29.03
75998;BME280;64685;48.762;44.822;2023-07-08T03:42:18;100596.53;;;32.98;28.74
75998;BME280;64685;48.762;44.822;2023-07-08T03:47:21;100587.53;;;32.96;28.72
75998;BME280;64685;48.762;44.822;2023-07-08T03:52:24;100577.25;;;32.55;29.29
75998;BME280;64685;48.762;44.822;2023-07-08T03:57:27;100579.78;;;32.84;29.27
75998;BME280;64685;48.762;44.822;2023-07-08T04:02:30;100572.28;;;32.65;29.39
75998;BME280;64685;48.762;44.822;2023-07-08T04:07:33;100567.84;;;32.73;29.25
75998;BME280;64685;48.762;44.822;2023-07-08T04:12:36;100578.13;;;32.34;29.59
75998;BME280;64685;48.762;44.822;2023-07-08T04:17:41;100568.59;;;32.25;30.88
75998;BME280;64685;48.762;44.822;2023-07-08T04:22:45;100564.31;;;32.38;30.84
75998;BME280;64685;48.762;44.822;2023-07-08T04:27:47;100565.75;;;32.34;30.40
75998;BME280;64685;48.762;44.822;2023-07-08T04:32:51;100555.84;;;32.22;30.74
75998;BME280;64685;48.762;44.822;2023-07-08T04:37:54;100560.19;;;32.18;31.12
75998;BME280;64685;48.762;44.822;2023-07-08T04:42:56;100559.50;;;32.14;31.15
75998;BME280;64685;48.762;44.822;2023-07-08T04:48:02;100554.91;;;31.95;31.38
75998;BME280;64685;48.762;44.822;2023-07-08T04:53:15;100555.47;;;31.81;31.73
75998;BME280;64685;48.762;44.822;2023-07-08T04:58:18;100548.44;;;31.82;31.75
75998;BME280;64685;48.762;44.822;2023-07-08T05:03:21;100552.47;;;31.84;31.48
75998;BME280;64685;48.762;44.822;2023-07-08T05:08:23;100546.72;;;31.93;31.67
75998;BME280;64685;48.762;44.822;2023-07-08T05:13:26;100542.66;;;32.12;32.09
75998;BME280;64685;48.762;44.822;2023-07-08T05:18:28;100533.81;;;32.86;31.60
75998;BME280;64685;48.762;44.822;2023-07-08T05:23:31;100526.25;;;34.79;30.13
75998;BME280;64685;48.762;44.822;2023-07-08T05:28:33;100522.16;;;35.71;27.57
75998;BME280;64685;48.762;44.822;2023-07-08T05:33:36;100507.63;;;37.18;26.19
75998;BME280;64685;48.762;44.822;2023-07-08T05:38:39;100515.59;;;38.14;24.79
75998;BME280;64685;48.762;44.822;2023-07-08T05:43:41;100505.94;;;38.02;24.55
75998;BME280;64685;48.762;44.822;2023-07-08T05:48:45;100502.53;;;38.40;23.55
75998;BME280;64685;48.762;44.822;2023-07-08T05:53:47;100500.97;;;38.39;23.16
75998;BME280;64685;48.762;44.822;2023-07-08T05:58:50;100497.94;;;39.01;22.77
75998;BME280;64685;48.762;44.822;2023-07-08T06:03:52;100496.47;;;38.80;23.28
75998;BME280;64685;48.762;44.822;2023-07-08T06:08:55;100476.31;;;39.35;22.70
75998;BME280;64685;48.762;44.822;2023-07-08T06:13:58;100474.31;;;40.62;21.88
75998;BME280;64685;48.762;44.822;2023-07-08T06:19:02;100465.69;;;40.92;20.93
75998;BME280;64685;48.762;44.822;2023-07-08T06:24:05;100467.13;;;41.83;20.01
75998;BME280;64685;48.762;44.822;2023-07-08T06:29:07;100478.94;;;42.66;19.80
75998;BME280;64685;48.762;44.822;2023-07-08T06:34:10;100475.09;;;40.68;20.55
75998;BME280;64685;48.762;44.822;2023-07-08T06:39:13;100470.56;;;39.96;21.97
75998;BME280;64685;48.762;44.822;2023-07-08T06:44:15;100469.06;;;39.20;22.38
75998;BME280;64685;48.762;44.822;2023-07-08T06:49:18;100466.34;;;38.58;23.29
75998;BME280;64685;48.762;44.822;2023-07-08T06:54:20;100448.00;;;39.05;22.37
75998;BME280;64685;48.762;44.822;2023-07-08T06:59:23;100462.88;;;40.04;22.04
75998;BME280;64685;48.762;44.822;2023-07-08T07:04:25;100446.09;;;39.77;20.88
75998;BME280;64685;48.762;44.822;2023-07-08T07:09:28;100444.31;;;39.10;21.91
75998;BME280;64685;48.762;44.822;2023-07-08T07:14:31;100440.88;;;38.64;22.03
75998;BME280;64685;48.762;44.822;2023-07-08T07:19:37;100429.78;;;37.69;23.53
75998;BME280;64685;48.762;44.822;2023-07-08T07:24:41;100424.88;;;37.55;22.84
75998;BME280;64685;48.762;44.822;2023-07-08T07:29:46;100420.56;;;37.51;22.91
75998;BME280;64685;48.762;44.822;2023-07-08T07:34:50;100414.59;;;37.91;22.88
75998;BME280;64685;48.762;44.822;2023-07-08T07:39:53;100411.41;;;39.26;21.23
75998;BME280;64685;48.762;44.822;2023-07-08T07:44:55;100414.41;;;40.36;20.66
75998;BME280;64685;48.762;44.822;2023-07-08T07:49:58;100410.13;;;41.27;19.85
75998;BME280;64685;48.762;44.822;2023-07-08T07:55:02;100408.91;;;41.52;19.11
75998;BME280;64685;48.762;44.822;2023-07-08T08:00:06;100393.91;;;41.61;19.54
75998;BME280;64685;48.762;44.822;2023-07-08T08:05:14;100397.88;;;41.23;19.60
75998;BME280;64685;48.762;44.822;2023-07-08T08:10:17;100392.78;;;40.72;20.19
75998;BME280;64685;48.762;44.822;2023-07-08T08:15:22;100379.09;;;39.84;20.64
75998;BME280;64685;48.762;44.822;2023-07-08T08:20:25;100361.47;;;39.35;20.11
75998;BME280;64685;48.762;44.822;2023-07-08T08:25:28;100352.66;;;39.13;19.88
75998;BME280;64685;48.762;44.822;2023-07-08T08:30:31;100344.75;;;39.57;18.91
75998;BME280;64685;48.762;44.822;2023-07-08T08:35:34;100338.56;;;41.00;17.73
75998;BME280;64685;48.762;44.822;2023-07-08T08:40:39;100336.31;;;42.17;15.79
75998;BME280;64685;48.762;44.822;2023-07-08T08:45:55;100322.22;;;42.58;16.05
75998;BME280;64685;48.762;44.822;2023-07-08T08:51:12;100318.81;;;42.72;16.27
75998;BME280;64685;48.762;44.822;2023-07-08T08:56:20;100302.31;;;43.06;16.42
75998;BME280;64685;48.762;44.822;2023-07-08T09:01:23;100299.28;;;42.93;16.45
75998;BME280;64685;48.762;44.822;2023-07-08T09:06:31;100286.78;;;41.78;16.87
75998;BME280;64685;48.762;44.822;2023-07-08T09:11:53;100285.31;;;41.26;17.53
75998;BME280;64685;48.762;44.822;2023-07-08T09:17:24;100270.66;;;40.34;18.43
75998;BME280;64685;48.762;44.822;2023-07-08T09:28:07;100262.75;;;40.12;19.39
75998;BME280;64685;48.762;44.822;2023-07-08T09:33:10;100241.25;;;41.07;18.32
75998;BME280;64685;48.762;44.822;2023-07-08T09:38:15;100248.69;;;41.43;17.78
75998;BME280;64685;48.762;44.822;2023-07-08T09:43:26;100240.16;;;41.69;17.08
75998;BME280;64685;48.762;44.822;2023-07-08T09:48:33;100225.06;;;41.30;18.41
75998;BME280;64685;48.762;44.822;2023-07-08T09:53:36;100205.34;;;40.55;18.06
75998;BME280;64685;48.762;44.822;2023-07-08T09:58:41;100204.19;;;40.69;18.74
75998;BME280;64685;48.762;44.822;2023-07-08T10:03:46;100193.28;;;41.34;17.73
75998;BME280;64685;48.762;44.822;2023-07-08T10:08:49;100203.00;;;40.83;17.63
75998;BME280;64685;48.762;44.822;2023-07-08T10:14:05;100185.06;;;40.63;17.73
75998;BME280;64685;48.762;44.822;2023-07-08T10:19:18;100170.69;;;40.65;17.90
75998;BME280;64685;48.762;44.822;2023-07-08T10:45:57;100151.97;;;41.08;17.21
75998;BME280;64685;48.762;44.822;2023-07-08T10:52:14;100157.78;;;40.79;17.32
75998;BME280;64685;48.762;44.822;2023-07-08T11:07:39;100118.84;;;40.49;17.93
75998;BME280;64685;48.762;44.822;2023-07-08T11:12:47;100105.63;;;40.31;17.74
75998;BME280;64685;48.762;44.822;2023-07-08T11:23:29;100099.91;;;40.09;17.78
75998;BME280;64685;48.762;44.822;2023-07-08T11:28:33;100076.88;;;39.89;17.87
75998;BME280;64685;48.762;44.822;2023-07-08T11:33:36;100066.78;;;39.85;17.91
75998;BME280;64685;48.762;44.822;2023-07-08T11:38:53;100081.69;;;39.87;17.70
75998;BME280;64685;48.762;44.822;2023-07-08T11:43:58;100065.47;;;39.80;17.82
75998;BME280;64685;48.762;44.822;2023-07-08T11:49:19;100058.81;;;39.80;16.59
75998;BME280;64685;48.762;44.822;2023-07-08T11:54:30;100067.53;;;39.91;16.63
75998;BME280;64685;48.762;44.822;2023-07-08T11:59:37;100055.78;;;40.02;17.32
75998;BME280;64685;48.762;44.822;2023-07-08T12:04:59;100054.94;;;40.07;16.78
75998;BME280;64685;48.762;44.822;2023-07-08T12:10:06;100052.81;;;40.07;16.83
75998;BME280;64685;48.762;44.822;2023-07-08T12:20:31;100047.63;;;40.30;16.80
75998;BME280;64685;48.762;44.822;2023-07-08T12:25:35;100037.00;;;40.27;17.15
75998;BME280;64685;48.762;44.822;2023-07-08T12:30:37;100029.91;;;40.17;16.99
75998;BME280;64685;48.762;44.822;2023-07-08T12:35:41;100027.84;;;40.01;17.28
75998;BME280;64685;48.762;44.822;2023-07-08T12:40:45;100017.31;;;39.87;17.58
75998;BME280;64685;48.762;44.822;2023-07-08T12:45:47;100026.91;;;39.82;16.71
75998;BME280;64685;48.762;44.822;2023-07-08T12:50:50;100007.81;;;39.70;17.49
75998;BME280;64685;48.762;44.822;2023-07-08T12:55:54;100001.19;;;39.64;17.81
75998;BME280;64685;48.762;44.822;2023-07-08T13:01:00;100000.22;;;39.50;18.02
75998;BME280;64685;48.762;44.822;2023-07-08T13:06:04;99989.63;;;39.36;18.11
75998;BME280;64685;48.762;44.822;2023-07-08T13:11:07;100005.41;;;39.11;18.98
75998;BME280;64685;48.762;44.822;2023-07-08T13:16:10;100012.59;;;38.94;19.32
75998;BME280;64685;48.762;44.822;2023-07-08T13:21:15;99999.59;;;38.78;19.70
75998;BME280;64685;48.762;44.822;2023-07-08T13:26:22;99991.13;;;38.58;19.10
75998;BME280;64685;48.762;44.822;2023-07-08T13:31:32;99978.94;;;38.54;19.39
75998;BME280;64685;48.762;44.822;2023-07-08T13:36:38;99967.81;;;38.42;20.42
75998;BME280;64685;48.762;44.822;2023-07-08T13:41:45;99948.69;;;38.52;20.32
75998;BME280;64685;48.762;44.822;2023-07-08T13:46:56;99936.44;;;38.70;20.37
75998;BME280;64685;48.762;44.822;2023-07-08T13:57:17;99946.53;;;38.69;20.81
75998;BME280;64685;48.762;44.822;2023-07-08T14:02:23;99984.25;;;38.45;21.30
75998;BME280;64685;48.762;44.822;2023-07-08T14:07:30;99997.72;;;37.87;22.21
75998;BME280;64685;48.762;44.822;2023-07-08T14:12:33;100017.78;;;37.05;22.69
75998;BME280;64685;48.762;44.822;2023-07-08T14:17:37;99977.94;;;36.18;21.08
75998;BME280;64685;48.762;44.822;2023-07-08T14:22:40;99952.25;;;36.89;19.92
75998;BME280;64685;48.762;44.822;2023-07-08T14:27:43;99944.78;;;37.25;20.00
75998;BME280;64685;48.762;44.822;2023-07-08T14:32:45;99947.72;;;37.30;21.42
75998;BME280;64685;48.762;44.822;2023-07-08T14:37:48;99937.09;;;37.22;21.67
75998;BME280;64685;48.762;44.822;2023-07-08T14:42:58;99947.59;;;37.08;22.46
75998;BME280;64685;48.762;44.822;2023-07-08T14:48:01;99938.47;;;36.84;23.19
75998;BME280;64685;48.762;44.822;2023-07-08T14:53:04;99944.22;;;36.73;23.72
75998;BME280;64685;48.762;44.822;2023-07-08T14:58:06;99946.06;;;36.65;24.13
75998;BME280;64685;48.762;44.822;2023-07-08T15:03:09;99940.63;;;36.47;24.70
75998;BME280;64685;48.762;44.822;2023-07-08T15:08:12;99931.97;;;36.22;25.41
75998;BME280;64685;48.762;44.822;2023-07-08T15:13:17;99925.47;;;36.07;25.67
75998;BME280;64685;48.762;44.822;2023-07-08T15:18:20;99917.97;;;35.95;25.77
75998;BME280;64685;48.762;44.822;2023-07-08T15:23:23;99923.69;;;35.84;25.94
75998;BME280;64685;48.762;44.822;2023-07-08T15:33:43;99922.97;;;35.69;25.06
75998;BME280;64685;48.762;44.822;2023-07-08T15:38:46;99922.81;;;35.72;23.49
75998;BME280;64685;48.762;44.822;2023-07-08T15:43:49;99918.78;;;35.70;23.50
75998;BME280;64685;48.762;44.822;2023-07-08T15:48:54;99914.59;;;35.71;22.97
75998;BME280;64685;48.762;44.822;2023-07-08T15:53:56;99914.09;;;35.72;22.66
75998;BME280;64685;48.762;44.822;2023-07-08T15:58:59;99921.38;;;35.68;22.15
75998;BME280;64685;48.762;44.822;2023-07-08T16:04:02;99921.19;;;35.71;21.71
75998;BME280;64685;48.762;44.822;2023-07-08T16:09:05;99935.50;;;35.75;21.67
75998;BME280;64685;48.762;44.822;2023-07-08T16:14:11;99929.75;;;35.80;21.50
75998;BME280;64685;48.762;44.822;2023-07-08T16:19:15;99937.50;;;35.69;21.52
75998;BME280;64685;48.762;44.822;2023-07-08T16:24:18;99943.47;;;35.80;21.33
75998;BME280;64685;48.762;44.822;2023-07-08T16:29:20;99946.59;;;35.76;21.56
75998;BME280;64685;48.762;44.822;2023-07-08T16:34:24;99937.03;;;35.70;21.52
75998;BME280;64685;48.762;44.822;2023-07-08T16:39:26;99953.59;;;35.64;21.43
75998;BME280;64685;48.762;44.822;2023-07-08T16:44:29;99984.88;;;35.49;21.76
75998;BME280;64685;48.762;44.822;2023-07-08T16:49:31;99955.72;;;35.38;22.10
75998;BME280;64685;48.762;44.822;2023-07-08T16:54:35;99962.59;;;35.21;22.50
75998;BME280;64685;48.762;44.822;2023-07-08T16:59:39;99949.47;;;35.05;23.11
75998;BME280;64685;48.762;44.822;2023-07-08T17:04:45;99946.25;;;35.03;22.90
75998;BME280;64685;48.762;44.822;2023-07-08T17:09:48;99948.94;;;35.07;22.83
75998;BME280;64685;48.762;44.822;2023-07-08T17:14:51;99910.03;;;35.19;22.03
75998;BME280;64685;48.762;44.822;2023-07-08T17:19:55;99936.94;;;35.19;22.14
75998;BME280;64685;48.762;44.822;2023-07-08T17:24:58;99950.56;;;35.08;22.80
75998;BME280;64685;48.762;44.822;2023-07-08T17:30:00;99937.00;;;34.99;22.65
75998;BME280;64685;48.762;44.822;2023-07-08T17:35:13;99938.88;;;34.82;23.39
75998;BME280;64685;48.762;44.822;2023-07-08T17:45:25;99947.66;;;34.53;24.22
75998;BME280;64685;48.762;44.822;2023-07-08T17:50:31;99954.19;;;34.34;24.32
75998;BME280;64685;48.762;44.822;2023-07-08T17:55:33;99959.00;;;34.22;24.98
75998;BME280;64685;48.762;44.822;2023-07-08T18:00:36;99957.94;;;34.05;24.79
75998;BME280;64685;48.762;44.822;2023-07-08T18:05:38;99945.34;;;33.94;24.88
75998;BME280;64685;48.762;44.822;2023-07-08T18:10:41;99965.97;;;33.81;25.32
75998;BME280;64685;48.762;44.822;2023-07-08T18:15:44;99959.03;;;33.64;26.06
75998;BME280;64685;48.762;44.822;2023-07-08T18:20:52;99961.41;;;33.51;25.72
75998;BME280;64685;48.762;44.822;2023-07-08T18:25:55;99969.88;;;33.40;26.38
75998;BME280;64685;48.762;44.822;2023-07-08T18:30:57;99953.91;;;33.30;26.39
75998;BME280;64685;48.762;44.822;2023-07-08T18:36:00;99959.25;;;33.23;26.78
75998;BME280;64685;48.762;44.822;2023-07-08T18:41:21;99953.13;;;33.21;26.34
75998;BME280;64685;48.762;44.822;2023-07-08T18:46:25;99948.72;;;33.11;26.35
75998;BME280;64685;48.762;44.822;2023-07-08T18:51:40;99949.91;;;33.04;26.69
75998;BME280;64685;48.762;44.822;2023-07-08T18:56:44;99947.44;;;32.88;27.53
75998;BME280;64685;48.762;44.822;2023-07-08T19:01:47;99940.63;;;32.77;27.56
75998;BME280;64685;48.762;44.822;2023-07-08T19:06:51;99934.06;;;32.67;27.83
75998;BME280;64685;48.762;44.822;2023-07-08T19:11:54;99931.97;;;32.68;27.24
75998;BME280;64685;48.762;44.822;2023-07-08T19:16:57;99926.19;;;32.68;27.23
75998;BME280;64685;48.762;44.822;2023-07-08T19:22:00;99914.31;;;32.66;27.43
75998;BME280;64685;48.762;44.822;2023-07-08T19:27:12;99916.88;;;32.64;27.82
75998;BME280;64685;48.762;44.822;2023-07-08T19:32:16;99916.28;;;32.60;27.29
75998;BME280;64685;48.762;44.822;2023-07-08T19:37:20;99908.28;;;32.55;27.94
75998;BME280;64685;48.762;44.822;2023-07-08T19:42:25;99898.94;;;32.60;27.80
75998;BME280;64685;48.762;44.822;2023-07-08T19:47:29;99895.09;;;32.54;28.36
75998;BME280;64685;48.762;44.822;2023-07-08T19:52:31;99896.28;;;32.47;27.95
75998;BME280;64685;48.762;44.822;2023-07-08T19:57:47;99883.28;;;32.43;28.33
75998;BME280;64685;48.762;44.822;2023-07-08T20:02:54;99893.50;;;32.29;28.68
75998;BME280;64685;48.762;44.822;2023-07-08T20:13:07;99881.13;;;31.96;29.61
75998;BME280;64685;48.762;44.822;2023-07-08T20:18:12;99876.78;;;31.92;29.36
75998;BME280;64685;48.762;44.822;2023-07-08T20:23:15;99872.38;;;31.82;30.31
75998;BME280;64685;48.762;44.822;2023-07-08T20:28:18;99877.50;;;31.78;30.18
75998;BME280;64685;48.762;44.822;2023-07-08T20:33:26;99877.38;;;31.63;30.50
75998;BME280;64685;48.762;44.822;2023-07-08T20:38:28;99880.09;;;31.58;30.73
75998;BME280;64685;48.762;44.822;2023-07-08T20:43:31;99888.00;;;31.48;30.87
75998;BME280;64685;48.762;44.822;2023-07-08T20:48:34;99886.09;;;31.45;31.19
75998;BME280;64685;48.762;44.822;2023-07-08T20:53:36;99885.94;;;31.40;31.28
75998;BME280;64685;48.762;44.822;2023-07-08T20:58:39;99888.88;;;31.31;31.81
75998;BME280;64685;48.762;44.822;2023-07-08T21:03:42;99892.41;;;31.26;32.29
75998;BME280;64685;48.762;44.822;2023-07-08T21:08:48;99905.69;;;31.14;32.34
75998;BME280;64685;48.762;44.822;2023-07-08T21:13:50;99909.69;;;30.99;32.80
75998;BME280;64685;48.762;44.822;2023-07-08T21:18:56;99912.75;;;30.77;33.29
75998;BME280;64685;48.762;44.822;2023-07-08T21:23:59;99902.00;;;30.78;33.74
75998;BME280;64685;48.762;44.822;2023-07-08T21:29:02;99908.91;;;30.71;34.04
75998;BME280;64685;48.762;44.822;2023-07-08T21:34:04;99920.25;;;30.66;34.95
75998;BME280;64685;48.762;44.822;2023-07-08T21:44:22;99929.78;;;30.45;35.79
75998;BME280;64685;48.762;44.822;2023-07-08T21:49:24;99932.31;;;30.34;36.32
75998;BME280;64685;48.762;44.822;2023-07-08T21:54:27;99925.88;;;30.21;37.77
75998;BME280;64685;48.762;44.822;2023-07-08T21:59:30;99928.06;;;30.08;38.77
75998;BME280;64685;48.762;44.822;2023-07-08T22:11:38;99923.59;;;29.76;40.88
75998;BME280;64685;48.762;44.822;2023-07-08T22:16:41;99932.63;;;29.57;41.89
75998;BME280;64685;48.762;44.822;2023-07-08T22:21:49;99932.66;;;29.44;42.16
75998;BME280;64685;48.762;44.822;2023-07-08T22:26:51;99927.44;;;29.30;42.61
75998;BME280;64685;48.762;44.822;2023-07-08T22:31:54;99946.84;;;29.17;43.30
75998;BME280;64685;48.762;44.822;2023-07-08T22:36:57;99961.91;;;29.00;44.44
75998;BME280;64685;48.762;44.822;2023-07-08T22:41:59;99958.56;;;28.89;44.33
75998;BME280;64685;48.762;44.822;2023-07-08T22:47:03;99963.53;;;28.76;45.05
75998;BME280;64685;48.762;44.822;2023-07-08T22:52:29;99962.19;;;28.68;45.52
75998;BME280;64685;48.762;44.822;2023-07-08T22:57:32;99964.19;;;28.58;45.66
75998;BME280;64685;48.762;44.822;2023-07-08T23:02:35;99965.53;;;28.54;45.75
75998;BME280;64685;48.762;44.822;2023-07-08T23:07:38;99974.28;;;28.38;46.01
75998;BME280;64685;48.762;44.822;2023-07-08T23:12:41;99980.75;;;28.17;46.62
75998;BME280;64685;48.762;44.822;2023-07-08T23:17:44;99987.41;;;28.01;47.25
75998;BME280;64685;48.762;44.822;2023-07-08T23:22:47;99992.91;;;27.96;47.43
75998;BME280;64685;48.762;44.822;2023-07-08T23:27:49;99987.03;;;27.87;47.88
75998;BME280;64685;48.762;44.822;2023-07-08T23:32:52;99997.66;;;27.74;48.31
75998;BME280;64685;48.762;44.822;2023-07-08T23:37:55;99996.28;;;27.66;48.02
75998;BME280;64685;48.762;44.822;2023-07-08T23:42:59;99983.97;;;27.65;47.93
75998;BME280;64685;48.762;44.822;2023-07-08T23:48:02;99991.00;;;27.64;48.26
75998;BME280;64685;48.762;44.822;2023-07-08T23:53:05;99986.97;;;27.62;49.08
75998;BME280;64685;48.762;44.822;2023-07-08T23:58:19;99986.03;;;27.52;49.28
